Terminal Aerodrome Forecast
Issued by NWS

Home | Current Version | Previous Version | Text Only | Print | Product List | Glossary On
Versions: 1 2 3 4 5 6 7 8 9 10 11 12 13 14 15 16 17 18 19 20 21 22 23 24 25 26 27 28 29 30 31 32
000
FTUS44 KFWD 231128
TAFDAL
TAF
KDAL 231128Z 2312/2412 35008KT P6SM SCT050 BKN100
      TEMPO 2312/2315 BKN025
     FM231600 35017KT P6SM VCSH SCT025 BKN040
      TEMPO 2319/2323 4SM -SHRA
     FM240100 34011KT P6SM FEW060=

USA.gov is the U.S. government's official web portal to all federal, state and local government web resources and services.